Tulum, ROO, Mexico
Current Conditions -  °F | °C
As of 6:40 PM on Sunday 21 Dec 2014 (Local Time) from MMCZ Reporting Station
Few Clouds Few Clouds  
Wind Chill: 70°   Ceiling: Unl
Heat Index: 70°   Visibility: 7mi
Dew Point: 70°   Wind: 5mph
Humidity: 100%   Direction: 140°SE
Pressure: 29.96"   Gusts: NA
Location:  20.22°N, 87.47°W
Report Text: MMCZ 220040Z 14004KT 7SM FEW015 21/21 A2996 RMK 8/500 RTS
Loading
Personal Weather Stations






























Interactive Weather Map New forecast layout! Learn more

10-Day Weather Forecast

Advertisements
Track Severe Weather on mobile